Time;durP1;ratioP1;P1;durP2;ratioP2;P2;SDS_P1;SDS_P2;PMS_P1;PMS_P2;Temp;Humidity;BMP_temperature;BMP_pressure;BME280_temperature;BME280_humidity;BME280_pressure;Samples;Min_cycle;Max_cycle;Signal;HPM_P1;HPM_P2
2020/12/04 00:00:10;;;;;;;8.07;7.33;;;3.80;84.90;;;;;;5015438;28;20193;-90
2020/12/04 00:02:36;;;;;;;8.93;7.90;;;3.90;84.70;;;;;;5020301;28;20237;-90
2020/12/04 00:05:03;;;;;;;7.67;6.87;;;3.90;85.90;;;;;;5036161;28;20216;-89
2020/12/04 00:07:29;;;;;;;8.17;7.00;;;3.90;85.80;;;;;;5037062;28;20670;-89
2020/12/04 00:09:55;;;;;;;7.50;6.80;;;3.90;85.40;;;;;;5020835;28;20193;-90
2020/12/04 00:12:20;;;;;;;6.90;6.20;;;3.90;85.60;;;;;;5022109;28;20186;-90
2020/12/04 00:14:46;;;;;;;7.83;7.10;;;3.90;85.20;;;;;;5021657;28;20677;-91
2020/12/04 00:17:12;;;;;;;7.40;6.60;;;3.90;85.60;;;;;;5020305;28;20193;-90
2020/12/04 00:19:38;;;;;;;7.50;6.80;;;3.90;85.50;;;;;;5020260;28;20193;-90
2020/12/04 00:22:04;;;;;;;7.53;6.87;;;3.90;86.40;;;;;;5021238;28;20217;-89
2020/12/04 00:24:30;;;;;;;7.17;6.47;;;3.90;87.00;;;;;;5038391;28;20201;-89
2020/12/04 00:26:56;;;;;;;7.10;6.40;;;3.90;87.20;;;;;;5021076;28;20182;-88
2020/12/04 00:29:24;;;;;;;6.80;6.20;;;3.90;86.30;;;;;;5019850;28;20272;-90
2020/12/04 00:31:50;;;;;;;7.07;6.37;;;3.90;86.30;;;;;;4986536;28;20201;-90
2020/12/04 00:34:16;;;;;;;6.83;6.13;;;3.80;87.30;;;;;;5018568;28;20182;-89
2020/12/04 00:36:45;;;;;;;6.87;6.27;;;3.80;87.50;;;;;;5020302;28;20232;-90
2020/12/04 00:39:11;;;;;;;7.03;6.30;;;3.70;87.60;;;;;;5019634;28;20252;-90
2020/12/04 00:41:36;;;;;;;6.60;6.00;;;3.80;88.10;;;;;;5020171;28;20248;-89
2020/12/04 00:44:02;;;;;;;7.00;6.40;;;3.90;86.60;;;;;;5022877;28;20182;-89
2020/12/04 00:46:28;;;;;;;7.10;6.40;;;3.80;86.30;;;;;;5021611;28;20740;-90
2020/12/04 00:48:54;;;;;;;7.27;6.57;;;3.80;87.20;;;;;;5015111;28;20204;-91
2020/12/04 00:51:19;;;;;;;7.63;6.17;;;3.90;87.50;;;;;;5004084;28;20233;-90
2020/12/04 00:53:45;;;;;;;7.40;6.70;;;3.90;88.00;;;;;;5003506;28;20718;-90
2020/12/04 00:56:11;;;;;;;7.20;6.50;;;3.90;88.00;;;;;;5001733;28;20261;-90
2020/12/04 00:58:36;;;;;;;7.17;5.90;;;3.80;87.80;;;;;;5002369;28;20190;-89
2020/12/04 01:01:03;;;;;;;7.07;6.40;;;3.80;88.20;;;;;;5002585;28;20237;-89
2020/12/04 01:03:29;;;;;;;8.53;6.83;;;3.80;87.90;;;;;;5003032;28;20206;-90
2020/12/04 01:05:55;;;;;;;7.00;6.40;;;3.90;87.40;;;;;;5000938;28;20215;-90
2020/12/04 01:08:21;;;;;;;6.23;5.63;;;3.90;87.70;;;;;;4985517;28;20195;-89
2020/12/04 01:10:47;;;;;;;6.57;5.67;;;3.80;88.40;;;;;;5001027;28;20201;-90
2020/12/04 01:13:13;;;;;;;6.20;5.70;;;3.80;88.30;;;;;;5001475;28;20266;-90
2020/12/04 01:15:39;;;;;;;6.30;5.70;;;3.80;88.10;;;;;;5000483;28;20698;-88
2020/12/04 01:18:04;;;;;;;6.33;5.70;;;3.80;88.20;;;;;;5002145;28;20598;-91
2020/12/04 01:20:30;;;;;;;8.13;5.73;;;3.70;88.30;;;;;;5002571;28;20178;-89
2020/12/04 01:22:56;;;;;;;6.83;6.13;;;3.70;89.10;;;;;;4985024;28;20197;-89
2020/12/04 01:25:22;;;;;;;6.77;6.00;;;3.80;88.90;;;;;;5001271;28;20211;-90
2020/12/04 01:27:47;;;;;;;6.30;5.70;;;3.80;88.50;;;;;;5000658;28;20206;-90
2020/12/04 01:30:14;;;;;;;6.60;6.00;;;3.80;88.70;;;;;;5001228;28;20201;-89
2020/12/04 01:32:40;;;;;;;6.47;5.80;;;3.90;88.10;;;;;;5002666;28;20183;-90
2020/12/04 01:35:06;;;;;;;6.73;5.97;;;3.90;88.40;;;;;;5003048;28;20217;-88
2020/12/04 01:37:32;;;;;;;6.43;5.83;;;3.80;88.10;;;;;;4969145;28;20278;-88
2020/12/04 01:39:58;;;;;;;6.70;5.70;;;3.90;88.30;;;;;;4984032;28;20202;-90
2020/12/04 01:42:23;;;;;;;6.33;5.73;;;3.80;88.30;;;;;;5002847;28;20712;-90
2020/12/04 01:44:49;;;;;;;6.60;6.00;;;3.90;87.70;;;;;;5001610;28;20237;-89
2020/12/04 01:47:17;;;;;;;6.40;5.80;;;3.80;88.00;;;;;;5003051;28;20298;-91
2020/12/04 01:49:45;;;;;;;5.93;5.43;;;3.80;88.90;;;;;;5002499;28;20516;-90
2020/12/04 01:52:11;;;;;;;5.70;5.23;;;3.70;89.70;;;;;;5001796;28;20182;-90
2020/12/04 01:54:38;;;;;;;6.33;5.73;;;3.80;88.70;;;;;;5001275;28;20701;-89
2020/12/04 01:57:04;;;;;;;5.90;5.30;;;3.70;89.10;;;;;;5008321;28;20196;-89
2020/12/04 01:59:30;;;;;;;5.23;4.73;;;3.70;88.80;;;;;;5020608;28;20209;-91
2020/12/04 02:02:29;;;;;;;6.13;5.53;;;3.80;89.00;;;;;;5004646;28;20229;-89
2020/12/04 02:04:55;;;;;;;5.97;5.37;;;3.90;88.70;;;;;;5011385;28;20210;-89
2020/12/04 02:07:29;;;;;;;6.30;5.70;;;3.90;89.00;;;;;;4985335;28;20233;-90
2020/12/04 02:10:00;;;;;;;5.73;5.23;;;3.90;88.90;;;;;;5000123;28;20205;-89
2020/12/04 02:12:27;;;;;;;6.20;5.60;;;3.90;88.90;;;;;;5001046;28;20186;-89
2020/12/04 02:14:53;;;;;;;6.03;5.43;;;3.80;89.00;;;;;;4984570;28;20206;-90
2020/12/04 02:17:33;;;;;;;6.03;5.43;;;3.60;90.70;;;;;;5000431;28;20193;-89
2020/12/04 02:19:59;;;;;;;5.77;5.10;;;3.60;91.70;;;;;;5004135;28;20232;-89
2020/12/04 02:22:25;;;;;;;6.07;5.47;;;3.50;91.50;;;;;;5002343;28;20206;-89
2020/12/04 02:24:56;;;;;;;5.70;5.20;;;3.70;90.70;;;;;;5001325;28;20186;-88
2020/12/04 02:27:23;;;;;;;5.40;4.90;;;3.70;89.60;;;;;;5000874;28;20188;-89
2020/12/04 02:29:48;;;;;;;6.10;4.80;;;3.70;89.80;;;;;;4984753;28;20194;-89
2020/12/04 02:32:17;;;;;;;5.40;4.90;;;3.70;90.50;;;;;;4983863;28;20187;-90
2020/12/04 02:34:43;;;;;;;6.80;5.73;;;3.70;90.30;;;;;;5002396;28;20286;-90
2020/12/04 02:37:09;;;;;;;6.70;5.70;;;3.80;90.50;;;;;;5002086;28;20214;-89
2020/12/04 02:39:35;;;;;;;6.23;5.63;;;3.70;91.00;;;;;;5003141;28;20185;-89
2020/12/04 02:42:03;;;;;;;6.10;5.50;;;3.80;90.20;;;;;;5001509;28;20218;-89
2020/12/04 02:44:29;;;;;;;5.23;4.77;;;3.70;90.70;;;;;;5002626;28;20198;-89
2020/12/04 02:46:55;;;;;;;7.23;5.80;;;3.70;90.10;;;;;;5005316;28;20205;-90
2020/12/04 02:49:21;;;;;;;7.20;6.50;;;3.80;90.30;;;;;;5006572;28;20182;-90
2020/12/04 02:51:48;;;;;;;7.30;6.60;;;3.80;90.70;;;;;;5002009;28;20192;-90
2020/12/04 02:54:15;;;;;;;7.47;6.70;;;3.70;92.10;;;;;;5013291;28;20190;-90
2020/12/04 02:56:41;;;;;;;7.63;6.37;;;3.60;92.90;;;;;;5020393;28;20200;-88
2020/12/04 02:59:07;;;;;;;8.43;7.27;;;3.60;93.20;;;;;;5036108;28;20212;-91
2020/12/04 03:01:33;;;;;;;7.97;7.17;;;3.50;93.50;;;;;;5021634;28;20201;-90
2020/12/04 03:03:58;;;;;;;8.27;7.20;;;3.60;93.60;;;;;;5019527;28;20193;-90
2020/12/04 03:06:24;;;;;;;8.37;7.27;;;3.50;93.50;;;;;;5020677;28;20224;-89
2020/12/04 03:08:51;;;;;;;7.63;6.83;;;3.60;93.90;;;;;;5020474;28;20189;-90
2020/12/04 03:11:21;;;;;;;9.57;8.67;;;3.60;93.50;;;;;;5022706;28;20290;-91
2020/12/04 03:13:47;;;;;;;7.93;7.13;;;3.60;92.80;;;;;;5022551;28;20200;-90
2020/12/04 03:16:14;;;;;;;8.43;7.57;;;3.50;93.70;;;;;;5023805;28;20208;-91
2020/12/04 03:18:41;;;;;;;10.53;7.93;;;3.70;94.00;;;;;;5022646;28;20205;-90
2020/12/04 03:21:07;;;;;;;9.20;7.97;;;3.70;93.70;;;;;;5022072;28;20216;-90
2020/12/04 03:23:33;;;;;;;8.63;7.83;;;3.80;92.70;;;;;;5004667;28;20187;-90
2020/12/04 03:25:59;;;;;;;9.47;8.40;;;3.90;92.20;;;;;;5002971;28;20206;-90
2020/12/04 03:28:25;;;;;;;9.53;7.43;;;3.90;91.80;;;;;;5004190;28;20186;-89
2020/12/04 03:30:52;;;;;;;9.50;8.60;;;3.80;91.80;;;;;;5003546;28;20181;-90
2020/12/04 03:33:18;;;;;;;10.23;8.13;;;3.70;91.70;;;;;;5019674;28;20181;-91
2020/12/04 03:35:46;;;;;;;9.87;8.93;;;3.50;93.60;;;;;;5019555;28;20220;-92
2020/12/04 03:38:11;;;;;;;11.17;8.87;;;3.50;94.30;;;;;;5021095;28;20185;-92
2020/12/04 03:40:38;;;;;;;11.83;9.83;;;3.30;95.00;;;;;;5036154;28;20571;-91
2020/12/04 03:43:04;;;;;;;9.10;8.17;;;3.40;92.60;;;;;;5003156;28;20599;-92
2020/12/04 03:45:33;;;;;;;10.10;8.57;;;3.50;93.70;;;;;;5019259;28;20231;-91
2020/12/04 03:48:00;;;;;;;9.23;7.87;;;3.50;93.80;;;;;;5016798;28;20281;-90
2020/12/04 03:50:26;;;;;;;8.73;7.07;;;3.60;93.10;;;;;;4983816;28;20186;-91
2020/12/04 03:52:52;;;;;;;10.33;7.93;;;3.60;92.60;;;;;;4983038;28;20813;-91
2020/12/04 03:58:13;;;;;;;9.50;8.20;;;3.80;92.70;;;;;;5057489;28;20262;-90
2020/12/04 04:00:53;;;;;;;8.13;7.33;;;3.80;92.30;;;;;;5055893;28;20262;-91
2020/12/04 04:03:51;;;;;;;7.53;6.83;;;4.00;91.60;;;;;;5040772;28;20180;-90
2020/12/04 04:06:43;;;;;;;7.17;6.50;;;4.10;88.70;;;;;;5019857;28;20355;-90
2020/12/04 04:09:47;;;;;;;6.57;5.93;;;4.20;84.60;;;;;;5023920;28;20181;-90
2020/12/04 04:12:20;;;;;;;6.53;5.93;;;4.30;82.90;;;;;;5043334;28;20196;-91
2020/12/04 04:18:16;;;;;;;6.43;5.63;;;4.60;80.30;;;;;;5042897;28;20226;-89
2020/12/04 04:21:25;;;;;;;;;;;;;;;;;;;;;
2020/12/04 04:24:36;;;;;;;6.23;5.27;;;4.70;83.10;;;;;;5055858;28;20244;-89
2020/12/04 04:27:24;;;;;;;5.80;4.10;;;4.70;79.70;;;;;;5045038;28;20661;-90
2020/12/04 04:30:00;;;;;;;4.53;3.60;;;5.00;79.40;;;;;;5048391;28;20204;-90
2020/12/04 04:32:47;;;;;;;3.47;3.17;;;5.40;77.70;;;;;;5046515;28;20188;-90
2020/12/04 04:35:23;;;;;;;2.80;2.57;;;5.50;78.40;;;;;;5046953;28;20205;-90
2020/12/04 04:38:01;;;;;;;2.63;1.97;;;5.80;78.00;;;;;;5027072;28;20283;-88
2020/12/04 04:40:39;;;;;;;2.80;1.83;;;6.10;77.40;;;;;;5046673;28;20211;-89
2020/12/04 04:43:18;;;;;;;1.70;1.60;;;6.10;76.90;;;;;;5046819;28;20198;-89
2020/12/04 04:46:10;;;;;;;1.53;1.43;;;6.40;76.00;;;;;;5045791;28;20208;-91
2020/12/04 04:49:26;;;;;;;3.37;3.07;;;6.80;74.10;;;;;;4982786;28;20188;-91
2020/12/04 04:52:31;;;;;;;;;;;;;;;;;;;;;
2020/12/04 04:58:05;;;;;;;4.90;4.40;;;6.10;77.20;;;;;;1471455;26;20210;-90
2020/12/04 05:00:55;;;;;;;5.57;4.60;;;5.80;78.40;;;;;;5082712;28;20171;-90
2020/12/04 05:04:01;;;;;;;5.17;4.67;;;5.80;78.10;;;;;;5065970;28;20224;-91
2020/12/04 05:06:45;;;;;;;5.30;4.80;;;5.70;77.80;;;;;;5052234;28;20230;-91
2020/12/04 05:09:26;;;;;;;5.20;4.50;;;5.60;78.10;;;;;;5081988;28;20183;-89
2020/12/04 05:12:18;;;;;;;5.37;4.87;;;5.60;77.00;;;;;;5082074;28;20183;-89
2020/12/04 05:14:55;;;;;;;11.43;10.23;;;5.70;77.20;;;;;;5081105;28;20218;-88
2020/12/04 05:17:27;;;;;;;20.97;18.00;;;5.60;79.80;;;;;;5080707;28;20251;-88
2020/12/04 05:20:04;;;;;;;15.33;13.87;;;5.50;80.10;;;;;;5078492;28;20635;-91
2020/12/04 05:22:40;;;;;;;9.57;7.10;;;5.40;80.40;;;;;;5032779;28;20207;-92
2020/12/04 05:25:25;;;;;;;4.80;4.40;;;5.40;77.90;;;;;;5062572;28;20204;-91
2020/12/04 05:27:51;;;;;;;5.40;4.90;;;5.50;81.20;;;;;;5053436;28;20192;-92
2020/12/04 05:30:29;;;;;;;5.13;4.73;;;5.30;82.30;;;;;;5065033;28;20194;-91
2020/12/04 05:33:04;;;;;;;8.33;7.53;;;5.30;82.40;;;;;;5083390;28;20214;-92
2020/12/04 05:35:33;;;;;;;6.13;5.53;;;5.20;82.40;;;;;;5082183;28;20207;-90
2020/12/04 05:38:12;;;;;;;6.47;5.97;;;5.20;82.00;;;;;;5082251;28;20187;-91
2020/12/04 05:40:47;;;;;;;6.47;5.87;;;5.10;83.90;;;;;;5083859;28;20170;-91
2020/12/04 05:43:14;;;;;;;6.43;5.83;;;5.10;84.60;;;;;;5084527;28;20250;-92
2020/12/04 05:45:41;;;;;;;6.20;5.67;;;5.10;85.20;;;;;;5084206;28;20290;-93
2020/12/04 05:48:16;;;;;;;6.83;6.07;;;5.20;84.00;;;;;;5082141;28;20175;-93
2020/12/04 05:50:43;;;;;;;5.87;5.37;;;5.20;82.70;;;;;;5081913;28;20602;-92
2020/12/04 05:53:10;;;;;;;4.70;4.23;;;5.30;83.20;;;;;;5064260;28;20204;-91
2020/12/04 05:55:37;;;;;;;5.17;4.47;;;5.20;83.70;;;;;;5082966;28;20312;-92
2020/12/04 05:58:08;;;;;;;4.27;3.87;;;5.40;83.40;;;;;;5065061;28;20571;-91
2020/12/04 06:00:34;;;;;;;3.87;3.47;;;5.40;83.60;;;;;;5064599;28;20180;-90
2020/12/04 06:03:02;;;;;;;3.50;2.73;;;5.40;83.20;;;;;;5079454;28;20639;-89
2020/12/04 06:05:28;;;;;;;2.77;2.57;;;5.50;83.10;;;;;;5062665;28;20196;-90
2020/12/04 06:08:01;;;;;;;2.30;2.10;;;5.50;83.90;;;;;;5079979;28;20180;-90
2020/12/04 06:10:29;;;;;;;2.00;1.80;;;5.60;83.80;;;;;;5081041;28;20183;-90
2020/12/04 06:12:56;;;;;;;2.20;2.00;;;5.70;82.20;;;;;;5063279;28;20195;-90
2020/12/04 06:15:32;;;;;;;2.17;2.00;;;5.80;82.40;;;;;;5080939;28;20204;-90
2020/12/04 06:18:09;;;;;;;1.90;1.80;;;5.70;81.90;;;;;;5064881;28;20662;-91
2020/12/04 06:20:51;;;;;;;2.97;1.87;;;5.80;81.50;;;;;;5078241;28;20181;-87
2020/12/04 06:23:18;;;;;;;4.50;2.40;;;6.00;81.30;;;;;;5080353;28;20238;-88
2020/12/04 06:25:54;;;;;;;2.90;2.70;;;6.00;81.40;;;;;;5080154;28;20291;-88
2020/12/04 06:28:22;;;;;;;3.57;2.57;;;5.90;84.30;;;;;;5080009;28;20272;-88
2020/12/04 06:31:12;;;;;;;4.33;2.87;;;5.80;84.60;;;;;;5077854;28;20211;-88
2020/12/04 06:33:48;;;;;;;4.07;3.20;;;5.70;85.20;;;;;;5080003;28;20164;-88
2020/12/04 06:36:29;;;;;;;3.10;2.80;;;5.70;85.80;;;;;;5079985;28;20195;-92
2020/12/04 06:38:55;;;;;;;3.47;2.80;;;5.50;87.20;;;;;;5080433;28;20207;-92
2020/12/04 06:41:34;;;;;;;3.20;2.90;;;5.40;88.00;;;;;;5079694;28;20544;-92
2020/12/04 06:44:21;;;;;;;3.23;2.93;;;5.40;88.40;;;;;;5087803;28;20179;-92
2020/12/04 06:46:55;;;;;;;4.23;3.10;;;5.30;87.60;;;;;;5060224;28;20208;-91
2020/12/04 06:52:06;;;;;;;3.23;2.97;;;5.30;87.40;;;;;;5080924;28;20186;-92
2020/12/04 06:54:34;;;;;;;3.33;2.87;;;5.20;88.40;;;;;;5078792;28;20207;-92
2020/12/04 06:57:00;;;;;;;2.87;2.67;;;5.20;87.90;;;;;;5080802;28;20241;-91
2020/12/04 06:59:31;;;;;;;3.20;2.90;;;5.30;87.20;;;;;;5064303;28;20671;-92
2020/12/04 07:02:09;;;;;;;3.60;2.67;;;5.30;87.50;;;;;;5064557;28;20235;-94
2020/12/04 07:04:46;;;;;;;2.90;2.60;;;5.40;85.90;;;;;;5061816;28;20198;-93
2020/12/04 07:07:17;;;;;;;3.30;3.00;;;5.40;87.90;;;;;;5077804;28;20209;-93
2020/12/04 07:09:57;;;;;;;3.10;2.80;;;5.40;88.20;;;;;;5079111;28;20175;-92
2020/12/04 07:12:26;;;;;;;3.70;3.40;;;5.50;88.40;;;;;;5059306;28;20177;-92
2020/12/04 07:14:56;;;;;;;3.60;3.30;;;5.50;88.20;;;;;;5059233;28;20487;-93
2020/12/04 07:17:28;;;;;;;4.27;3.50;;;5.40;88.80;;;;;;5079202;28;20164;-90
2020/12/04 07:19:56;;;;;;;3.60;3.30;;;5.40;88.80;;;;;;5077210;28;20183;-92
2020/12/04 07:22:23;;;;;;;3.50;3.20;;;5.30;89.30;;;;;;5071257;28;20680;-92
2020/12/04 07:24:50;;;;;;;3.77;3.40;;;5.30;89.80;;;;;;5070918;28;20192;-93
2020/12/04 07:27:18;;;;;;;4.13;3.10;;;5.30;90.20;;;;;;5058997;28;20196;-91
2020/12/04 07:29:45;;;;;;;4.00;3.23;;;5.20;91.00;;;;;;5076062;28;20209;-90
2020/12/04 07:32:12;;;;;;;5.40;3.37;;;5.20;91.30;;;;;;5078008;28;20191;-92
2020/12/04 07:34:38;;;;;;;8.30;7.50;;;5.20;90.90;;;;;;5060701;28;20205;-91
2020/12/04 07:37:06;;;;;;;8.77;6.70;;;5.20;91.80;;;;;;5044411;28;20184;-90
2020/12/04 07:39:34;;;;;;;9.37;7.37;;;5.30;90.50;;;;;;5060537;28;20195;-90
2020/12/04 07:42:01;;;;;;;5.67;5.03;;;5.50;87.50;;;;;;5060777;28;20228;-90
2020/12/04 07:44:41;;;;;;;5.93;4.43;;;5.60;86.60;;;;;;5067975;28;20231;-89
2020/12/04 07:47:15;;;;;;;9.37;5.87;;;5.60;84.30;;;;;;5064773;28;20632;-91
2020/12/04 07:49:54;;;;;;;3.67;3.23;;;5.90;84.00;;;;;;5065367;28;20168;-90
2020/12/04 07:52:22;;;;;;;3.73;3.20;;;6.00;81.70;;;;;;5063613;28;20200;-91
2020/12/04 07:54:54;;;;;;;3.47;2.57;;;6.10;81.50;;;;;;5066087;28;20593;-89
2020/12/04 07:57:24;;;;;;;2.67;2.47;;;6.10;80.80;;;;;;5068983;28;20175;-90
2020/12/04 07:59:54;;;;;;;2.30;2.10;;;6.20;80.00;;;;;;5075502;28;20696;-90
2020/12/04 08:02:23;;;;;;;2.67;1.80;;;6.30;79.80;;;;;;5069245;28;20196;-91
2020/12/04 08:04:49;;;;;;;2.33;1.90;;;6.30;79.00;;;;;;5072131;28;20234;-91
2020/12/04 08:07:15;;;;;;;4.23;1.97;;;6.50;77.60;;;;;;5076238;28;20187;-91
2020/12/04 08:09:42;;;;;;;1.97;1.80;;;6.60;76.80;;;;;;5068642;28;20694;-91
2020/12/04 08:12:21;;;;;;;5.10;2.53;;;6.70;75.60;;;;;;5076972;28;20180;-91
2020/12/04 08:14:55;;;;;;;3.37;2.10;;;6.70;76.20;;;;;;5075543;28;20204;-90
2020/12/04 08:17:23;;;;;;;3.67;2.10;;;6.90;74.80;;;;;;5077241;28;20180;-90
2020/12/04 08:19:49;;;;;;;2.50;2.10;;;7.10;73.50;;;;;;5070409;28;20184;-90
2020/12/04 08:22:15;;;;;;;2.20;1.77;;;7.20;73.60;;;;;;5077979;28;20257;-90
2020/12/04 08:25:02;;;;;;;2.73;1.83;;;7.30;73.50;;;;;;5069804;28;20272;-91
2020/12/04 08:27:28;;;;;;;2.37;1.73;;;7.20;73.90;;;;;;5070960;28;20564;-91
2020/12/04 08:30:17;;;;;;;6.10;2.60;;;7.30;74.20;;;;;;5078319;28;20563;-91
2020/12/04 08:33:06;;;;;;;2.47;1.90;;;7.30;74.60;;;;;;5074456;28;20316;-90
2020/12/04 08:35:42;;;;;;;2.33;1.70;;;7.30;74.60;;;;;;5082130;28;20219;-91
2020/12/04 08:38:22;;;;;;;3.10;1.70;;;7.30;76.50;;;;;;5070824;28;20650;-92
2020/12/04 08:40:52;;;;;;;1.60;1.50;;;7.40;74.50;;;;;;5067349;28;20215;-92
2020/12/04 08:43:22;;;;;;;2.40;1.40;;;7.30;75.80;;;;;;5072985;28;20188;-92
2020/12/04 08:45:50;;;;;;;2.37;2.17;;;7.30;77.00;;;;;;5074465;28;20208;-91
2020/12/04 08:48:19;;;;;;;2.40;2.30;;;7.50;75.80;;;;;;5052037;28;20176;-91
2020/12/04 08:50:52;;;;;;;2.40;1.80;;;7.60;75.60;;;;;;5069170;28;20184;-90
2020/12/04 08:53:21;;;;;;;2.00;1.90;;;7.50;76.90;;;;;;5067777;28;20568;-90
2020/12/04 08:55:55;;;;;;;2.10;1.93;;;7.30;77.40;;;;;;5081940;28;20204;-91
2020/12/04 08:58:22;;;;;;;2.43;1.90;;;7.20;78.40;;;;;;5069642;28;20203;-92
2020/12/04 09:00:49;;;;;;;2.83;2.07;;;7.10;79.10;;;;;;5070813;28;20188;-92
2020/12/04 09:03:16;;;;;;;3.07;2.37;;;7.00;79.80;;;;;;5071072;28;20195;-90
2020/12/04 09:05:42;;;;;;;4.03;2.57;;;6.90;79.20;;;;;;5071426;28;20249;-91
2020/12/04 09:08:08;;;;;;;2.47;2.27;;;7.00;77.90;;;;;;5079496;28;20188;-91
2020/12/04 09:10:35;;;;;;;2.67;2.47;;;7.10;78.10;;;;;;5073127;28;20181;-90
2020/12/04 09:13:02;;;;;;;3.20;2.90;;;7.20;77.50;;;;;;5076143;28;20203;-91
2020/12/04 09:15:30;;;;;;;3.80;3.40;;;7.20;77.60;;;;;;5076135;28;20223;-91
2020/12/04 09:17:56;;;;;;;3.57;2.83;;;7.30;77.00;;;;;;5067297;28;20237;-91
2020/12/04 09:20:24;;;;;;;2.90;2.70;;;7.30;78.00;;;;;;5073356;28;20195;-91
2020/12/04 09:22:50;;;;;;;4.83;4.20;;;7.30;78.00;;;;;;5067925;28;20477;-91
2020/12/04 09:25:16;;;;;;;3.73;2.80;;;7.30;78.50;;;;;;5074420;28;20200;-91
2020/12/04 09:27:43;;;;;;;3.57;3.27;;;7.30;79.00;;;;;;5072477;28;20517;-91
2020/12/04 09:30:11;;;;;;;2.97;2.77;;;7.30;78.40;;;;;;5066286;28;20198;-91
2020/12/04 09:32:37;;;;;;;3.60;3.30;;;7.10;80.30;;;;;;5075789;28;20191;-90
2020/12/04 09:35:04;;;;;;;3.37;2.90;;;7.00;81.20;;;;;;5068928;28;20231;-90
2020/12/04 09:37:33;;;;;;;2.70;2.50;;;7.20;80.20;;;;;;5070393;28;20670;-91
2020/12/04 09:40:03;;;;;;;2.97;2.70;;;7.20;81.10;;;;;;5073757;28;20257;-92
2020/12/04 09:42:28;;;;;;;4.60;2.00;;;7.20;82.30;;;;;;5071852;28;20195;-91
2020/12/04 09:44:55;;;;;;;2.30;1.70;;;7.00;83.00;;;;;;5071852;28;20687;-92
2020/12/04 09:47:22;;;;;;;2.00;1.90;;;7.10;83.60;;;;;;5070342;28;20192;-92
2020/12/04 09:49:49;;;;;;;5.50;2.20;;;7.00;84.30;;;;;;5070233;28;20478;-91
2020/12/04 09:52:16;;;;;;;1.60;1.50;;;7.00;84.30;;;;;;5074713;28;20282;-90
2020/12/04 09:54:46;;;;;;;3.83;1.87;;;6.90;86.00;;;;;;5069917;28;20211;-91
2020/12/04 09:57:14;;;;;;;2.20;1.87;;;6.80;86.60;;;;;;5071257;28;20275;-93
2020/12/04 09:59:40;;;;;;;1.60;1.50;;;7.00;86.20;;;;;;5068376;28;20805;-91
2020/12/04 10:02:07;;;;;;;2.60;2.40;;;7.00;86.30;;;;;;5071305;28;20201;-92
2020/12/04 10:04:33;;;;;;;1.60;1.50;;;7.00;86.90;;;;;;5067663;28;20200;-93
2020/12/04 10:07:00;;;;;;;1.93;1.83;;;7.00;87.10;;;;;;5072129;28;20266;-92
2020/12/04 10:09:27;;;;;;;1.70;1.60;;;6.90;88.00;;;;;;5070503;28;20226;-93
2020/12/04 10:11:53;;;;;;;2.00;1.80;;;6.90;88.60;;;;;;5068726;28;20181;-91
2020/12/04 10:14:20;;;;;;;1.87;1.77;;;6.80;89.20;;;;;;5068338;28;20203;-92
2020/12/04 10:16:47;;;;;;;2.93;2.17;;;6.80;89.60;;;;;;5065135;28;20223;-92
2020/12/04 10:19:15;;;;;;;2.57;1.63;;;6.70;90.10;;;;;;5070285;28;20194;-93
2020/12/04 10:21:41;;;;;;;2.20;1.83;;;6.60;91.30;;;;;;5067731;28;20212;-91
2020/12/04 10:24:09;;;;;;;1.43;1.40;;;6.60;91.90;;;;;;5069892;28;20221;-92
2020/12/04 10:26:44;;;;;;;1.77;1.67;;;6.60;92.20;;;;;;5071159;28;20662;-93
2020/12/04 10:29:10;;;;;;;2.47;2.27;;;6.50;92.80;;;;;;5074493;28;20180;-93
2020/12/04 10:31:36;;;;;;;2.03;1.80;;;6.60;92.00;;;;;;5075659;28;20247;-93
2020/12/04 10:34:03;;;;;;;2.23;1.60;;;6.70;92.00;;;;;;5078070;28;20187;-90
2020/12/04 10:36:30;;;;;;;1.70;1.60;;;6.60;92.00;;;;;;5074523;28;20233;-93
2020/12/04 10:38:56;;;;;;;2.97;2.30;;;6.50;94.20;;;;;;5073641;28;20182;-93
2020/12/04 10:41:22;;;;;;;1.70;1.60;;;6.40;94.00;;;;;;5079279;28;20281;-91
2020/12/04 10:43:49;;;;;;;2.07;1.83;;;6.40;93.90;;;;;;5074902;28;20188;-93
2020/12/04 10:46:16;;;;;;;3.20;2.40;;;6.30;93.70;;;;;;5071892;28;20234;-92
2020/12/04 10:48:42;;;;;;;2.40;2.20;;;6.40;93.20;;;;;;5072904;28;20214;-92
2020/12/04 10:51:10;;;;;;;3.00;2.53;;;6.50;92.70;;;;;;5055874;28;20652;-92
2020/12/04 10:53:36;;;;;;;3.23;2.30;;;6.40;92.20;;;;;;5069144;28;20237;-92
2020/12/04 10:56:02;;;;;;;2.43;2.23;;;6.40;92.30;;;;;;5073836;28;20243;-91
2020/12/04 10:58:28;;;;;;;3.00;2.30;;;6.60;92.10;;;;;;5074145;28;20219;-91
2020/12/04 11:00:54;;;;;;;2.93;2.00;;;6.60;92.00;;;;;;5065078;28;20200;-91
2020/12/04 11:05:54;;;;;;;2.30;2.10;;;6.70;89.60;;;;;;5067106;28;20215;-94
2020/12/04 11:08:21;;;;;;;2.80;2.60;;;6.70;90.20;;;;;;5069692;28;20187;-91
2020/12/04 11:10:47;;;;;;;6.00;5.60;;;6.90;89.00;;;;;;5070551;28;20199;-93
2020/12/04 11:13:13;;;;;;;7.43;2.50;;;7.00;88.30;;;;;;5074650;28;20187;-94
2020/12/04 11:15:39;;;;;;;2.80;2.57;;;7.10;88.00;;;;;;5070250;28;20285;-92
2020/12/04 11:18:04;;;;;;;11.73;11.03;;;7.20;89.00;;;;;;5060856;28;20195;-92
2020/12/04 11:20:30;;;;;;;6.70;6.20;;;7.10;89.20;;;;;;5062944;28;20195;-92
2020/12/04 11:22:56;;;;;;;4.00;3.70;;;7.10;89.60;;;;;;5057942;28;20308;-92
2020/12/04 11:25:22;;;;;;;3.80;3.50;;;7.20;90.00;;;;;;5064221;28;20577;-91
2020/12/04 11:27:49;;;;;;;5.70;5.30;;;7.30;90.00;;;;;;5064566;28;20237;-92
2020/12/04 11:30:21;;;;;;;7.43;6.73;;;7.30;89.80;;;;;;5063829;28;20267;-93
2020/12/04 11:32:48;;;;;;;4.83;4.43;;;7.40;90.40;;;;;;5063263;28;20191;-92
2020/12/04 11:35:15;;;;;;;7.10;6.50;;;7.30;91.40;;;;;;5059825;28;21180;-93
2020/12/04 11:37:43;;;;;;;4.87;4.47;;;7.40;90.30;;;;;;5061895;28;20208;-92
2020/12/04 11:40:11;;;;;;;7.17;6.57;;;7.40;89.70;;;;;;5070365;28;20192;-91
2020/12/04 11:42:41;;;;;;;4.87;2.70;;;7.40;90.00;;;;;;5063868;28;20208;-92
2020/12/04 11:45:09;;;;;;;4.53;4.13;;;7.40;90.20;;;;;;5061819;28;20200;-92
2020/12/04 11:47:38;;;;;;;3.67;3.37;;;7.30;90.70;;;;;;5067481;28;20192;-94
2020/12/04 11:50:15;;;;;;;2.40;2.20;;;7.20;91.30;;;;;;5064383;28;20200;-92
2020/12/04 11:52:42;;;;;;;2.30;2.03;;;7.10;92.70;;;;;;5066842;28;20191;-92
2020/12/04 11:55:09;;;;;;;2.30;2.10;;;7.10;92.80;;;;;;5068841;28;20243;-91
2020/12/04 11:57:35;;;;;;;2.37;2.17;;;7.10;92.30;;;;;;5067263;28;20215;-91
2020/12/04 12:00:01;;;;;;;2.70;2.00;;;7.10;92.20;;;;;;5065774;28;20185;-91
2020/12/04 12:02:27;;;;;;;2.47;2.27;;;6.80;92.60;;;;;;5068164;28;20207;-90
2020/12/04 12:04:53;;;;;;;2.33;2.13;;;6.90;93.40;;;;;;5065460;28;20203;-92
2020/12/04 12:07:19;;;;;;;2.53;2.33;;;6.90;92.70;;;;;;5062709;28;20202;-90
2020/12/04 12:09:47;;;;;;;3.00;2.40;;;7.00;92.00;;;;;;5068714;28;20197;-91
2020/12/04 12:12:17;;;;;;;2.63;2.43;;;6.90;91.10;;;;;;5068826;28;20192;-92
2020/12/04 12:14:47;;;;;;;2.80;2.60;;;6.80;93.50;;;;;;5067716;28;20216;-95
2020/12/04 12:17:15;;;;;;;2.20;2.10;;;6.80;93.20;;;;;;5066355;28;20223;-93
2020/12/04 12:19:42;;;;;;;2.53;2.33;;;6.90;92.30;;;;;;5076553;28;20192;-90
2020/12/04 12:22:09;;;;;;;2.67;2.47;;;7.00;91.50;;;;;;5077997;28;20212;-91
2020/12/04 12:24:36;;;;;;;2.77;2.20;;;7.00;91.00;;;;;;5077792;28;20707;-90
2020/12/04 12:27:02;;;;;;;3.67;3.10;;;7.00;92.30;;;;;;5077767;28;20185;-91
2020/12/04 12:29:28;;;;;;;5.20;4.20;;;7.10;92.20;;;;;;5075978;28;20287;-92
2020/12/04 12:31:54;;;;;;;4.97;4.47;;;7.10;92.00;;;;;;5079453;28;20647;-90
2020/12/04 12:34:19;;;;;;;5.23;4.20;;;7.00;92.10;;;;;;5080994;28;20187;-91
2020/12/04 12:36:45;;;;;;;4.70;4.30;;;7.00;91.90;;;;;;5080647;28;20203;-91
2020/12/04 12:39:11;;;;;;;4.50;3.80;;;6.90;92.90;;;;;;5081101;28;20241;-91
2020/12/04 12:41:37;;;;;;;5.10;4.30;;;6.90;93.20;;;;;;5063714;28;20223;-91
2020/12/04 12:44:03;;;;;;;5.23;3.67;;;7.00;93.40;;;;;;5068612;28;20213;-89
2020/12/04 12:46:28;;;;;;;3.93;3.53;;;7.00;93.10;;;;;;5082667;28;20216;-87
2020/12/04 12:48:54;;;;;;;4.80;4.40;;;7.10;92.50;;;;;;5085455;28;20196;-88
2020/12/04 12:51:20;;;;;;;5.20;4.70;;;7.10;92.00;;;;;;5083180;28;20252;-89
2020/12/04 12:53:47;;;;;;;4.43;3.60;;;7.20;91.70;;;;;;5085144;28;20188;-88
2020/12/04 12:56:13;;;;;;;3.47;3.17;;;7.20;91.20;;;;;;5085215;28;20231;-87
2020/12/04 12:58:39;;;;;;;4.57;4.17;;;7.00;92.30;;;;;;5081054;28;20207;-88
2020/12/04 13:01:05;;;;;;;3.37;3.07;;;6.90;93.10;;;;;;5073511;28;20199;-89
2020/12/04 13:03:31;;;;;;;4.30;3.90;;;7.10;92.20;;;;;;5072076;28;20188;-88
2020/12/04 13:05:56;;;;;;;4.30;3.77;;;7.00;92.80;;;;;;5071914;28;20253;-88
2020/12/04 13:08:22;;;;;;;3.90;3.60;;;7.10;93.30;;;;;;5076769;28;20186;-88
2020/12/04 13:10:49;;;;;;;4.37;3.93;;;6.90;93.10;;;;;;5074245;28;20229;-88
2020/12/04 13:13:16;;;;;;;5.23;4.67;;;6.80;93.20;;;;;;5075410;28;20180;-87
2020/12/04 13:15:42;;;;;;;7.13;4.50;;;6.80;93.70;;;;;;5075942;28;20211;-88
2020/12/04 13:18:08;;;;;;;4.43;3.93;;;6.90;92.40;;;;;;5073893;28;20252;-88
2020/12/04 13:20:34;;;;;;;4.73;3.30;;;7.00;91.60;;;;;;5070584;28;20589;-89
2020/12/04 13:23:14;;;;;;;4.40;4.00;;;7.10;90.80;;;;;;5073815;28;20204;-89
2020/12/04 13:25:41;;;;;;;3.50;3.20;;;7.00;91.40;;;;;;5070705;28;20223;-87